Time;durP1;ratioP1;P1;durP2;ratioP2;P2;SDS_P1;SDS_P2;PMS_P1;PMS_P2;Temp;Humidity;BMP_temperature;BMP_pressure;BME280_temperature;BME280_humidity;BME280_pressure;Samples;Min_cycle;Max_cycle;Signal;HPM_P1;HPM_P2
2022/10/25 00:00:27;;;;;;;1.10;0.45;;;14.30;99.90;;;;;;5080756;28;20036;-76
2022/10/25 00:02:52;;;;;;;2.17;0.70;;;14.50;99.90;;;;;;5072554;28;20028;-76
2022/10/25 00:05:18;;;;;;;0.70;0.47;;;14.10;99.90;;;;;;5088659;28;20043;-77
2022/10/25 00:07:44;;;;;;;2.50;0.70;;;13.30;99.90;;;;;;5094495;28;20032;-77
2022/10/25 00:10:10;;;;;;;4.90;0.75;;;13.30;99.90;;;;;;5092998;28;20048;-77
2022/10/25 00:12:42;;;;;;;2.35;0.70;;;13.40;99.90;;;;;;5094961;28;20058;-77
2022/10/25 00:15:08;;;;;;;5.82;1.42;;;13.50;99.90;;;;;;5083612;28;20045;-77
2022/10/25 00:17:34;;;;;;;3.40;0.70;;;13.60;99.90;;;;;;5075311;28;20044;-77
2022/10/25 00:20:00;;;;;;;2.58;0.73;;;13.70;99.90;;;;;;5075312;28;20032;-77
2022/10/25 00:22:28;;;;;;;2.80;0.65;;;13.80;99.90;;;;;;5082486;28;20046;-78
2022/10/25 00:24:53;;;;;;;3.22;0.90;;;13.70;99.90;;;;;;5096450;28;20111;-77
2022/10/25 00:27:19;;;;;;;4.50;0.80;;;13.80;99.90;;;;;;5096364;28;20039;-79
2022/10/25 00:29:45;;;;;;;1.10;0.50;;;13.70;99.90;;;;;;5091098;28;20511;-77
2022/10/25 00:32:11;;;;;;;3.33;1.00;;;13.50;99.90;;;;;;5079816;28;20044;-76
2022/10/25 00:34:39;;;;;;;0.80;0.60;;;13.30;99.90;;;;;;5093972;28;20518;-76
2022/10/25 00:37:05;;;;;;;2.67;0.70;;;13.30;99.90;;;;;;5095946;28;20032;-76
2022/10/25 00:39:31;;;;;;;6.07;1.25;;;13.40;99.90;;;;;;5095638;28;20046;-76
2022/10/25 00:41:56;;;;;;;1.50;0.77;;;13.10;99.90;;;;;;5083095;28;20423;-78
2022/10/25 00:44:37;;;;;;;1.25;0.63;;;12.80;99.90;;;;;;5074895;28;20040;-77
2022/10/25 00:47:13;;;;;;;1.55;0.60;;;12.80;99.90;;;;;;5077255;28;20443;-77
2022/10/25 00:49:41;;;;;;;0.80;0.60;;;12.80;99.90;;;;;;5074629;28;20463;-78
2022/10/25 00:52:09;;;;;;;3.15;0.77;;;12.70;99.90;;;;;;5075974;28;20135;-77
2022/10/25 00:54:41;;;;;;;4.97;0.75;;;12.80;99.90;;;;;;5074363;28;20082;-77
2022/10/25 00:57:37;;;;;;;3.30;0.40;;;12.90;99.90;;;;;;5075795;28;20032;-77
2022/10/25 01:00:05;;;;;;;0.95;0.50;;;13.00;99.90;;;;;;5074453;28;20081;-77
2022/10/25 01:02:31;;;;;;;4.43;0.70;;;13.00;99.90;;;;;;5075808;28;20119;-77
2022/10/25 01:04:57;;;;;;;1.35;0.77;;;13.10;99.90;;;;;;5081630;28;20074;-78
2022/10/25 01:07:23;;;;;;;1.67;0.80;;;13.10;99.90;;;;;;5095186;28;20410;-78
2022/10/25 01:09:50;;;;;;;3.80;0.63;;;13.10;99.90;;;;;;5094081;28;20039;-78
2022/10/25 01:12:15;;;;;;;1.98;0.60;;;13.10;99.90;;;;;;5095510;28;20545;-78
2022/10/25 01:14:44;;;;;;;2.55;0.75;;;13.10;99.90;;;;;;5093874;28;20040;-77
2022/10/25 01:17:18;;;;;;;2.25;0.90;;;13.10;99.90;;;;;;5094954;28;20126;-77
2022/10/25 01:20:40;;;;;;;2.10;0.77;;;13.20;99.90;;;;;;5093500;28;20036;-77
2022/10/25 01:23:23;;;;;;;4.57;0.70;;;13.20;99.90;;;;;;5060997;28;20593;-78
2022/10/25 01:26:07;;;;;;;2.83;0.55;;;13.30;99.90;;;;;;5053019;28;20028;-77
2022/10/25 01:29:00;;;;;;;3.45;1.27;;;13.30;99.90;;;;;;5054278;28;20124;-77
2022/10/25 01:31:30;;;;;;;1.65;0.80;;;13.10;99.90;;;;;;5055132;28;20048;-78
2022/10/25 01:34:20;;;;;;;5.13;0.60;;;12.70;99.90;;;;;;5091826;28;20522;-76
2022/10/25 01:37:03;;;;;;;1.15;0.60;;;12.60;99.90;;;;;;5094846;28;20522;-78
2022/10/25 01:39:34;;;;;;;1.05;0.50;;;12.30;99.90;;;;;;5077525;28;20028;-78
2022/10/25 01:42:12;;;;;;;1.67;0.75;;;12.10;99.90;;;;;;5075627;28;20096;-77
2022/10/25 01:44:43;;;;;;;1.88;0.50;;;12.20;99.90;;;;;;5093382;28;20119;-78
2022/10/25 01:47:16;;;;;;;1.23;0.63;;;12.30;99.90;;;;;;5082801;28;20032;-77
2022/10/25 01:49:51;;;;;;;2.75;0.93;;;12.40;99.90;;;;;;5074722;28;20048;-77
2022/10/25 01:52:23;;;;;;;6.75;1.00;;;12.40;99.90;;;;;;5085589;28;20048;-77
2022/10/25 01:54:50;;;;;;;2.10;0.50;;;12.40;99.90;;;;;;5093077;28;20051;-77
2022/10/25 01:57:34;;;;;;;1.02;0.50;;;12.50;99.90;;;;;;5093168;28;20043;-77
2022/10/25 02:00:19;;;;;;;1.08;0.80;;;12.60;99.90;;;;;;5083917;28;20040;-76
2022/10/25 02:03:09;;;;;;;3.28;0.82;;;12.60;99.90;;;;;;5070293;28;20248;-78
2022/10/25 02:05:37;;;;;;;3.03;0.77;;;12.70;99.90;;;;;;5089190;28;20446;-76
2022/10/25 02:08:22;;;;;;;3.45;0.73;;;12.80;99.90;;;;;;5082944;28;20040;-79
2022/10/25 02:10:58;;;;;;;1.75;0.57;;;12.70;99.90;;;;;;5074493;28;20032;-77
2022/10/25 02:13:32;;;;;;;1.63;0.63;;;12.60;99.90;;;;;;5075238;28;20040;-76
2022/10/25 02:16:03;;;;;;;2.05;0.52;;;12.60;99.90;;;;;;5074123;28;20048;-77
2022/10/25 02:18:34;;;;;;;4.22;0.70;;;12.60;99.90;;;;;;5075109;28;20024;-77
2022/10/25 02:21:01;;;;;;;0.93;0.40;;;12.70;99.90;;;;;;5074324;28;20040;-76
2022/10/25 02:23:28;;;;;;;2.00;0.65;;;12.90;99.90;;;;;;5073997;28;20090;-78
2022/10/25 02:25:54;;;;;;;1.27;0.60;;;13.00;99.90;;;;;;5073036;28;20408;-75
2022/10/25 02:28:24;;;;;;;4.03;0.70;;;13.00;99.90;;;;;;5088172;28;20038;-79
2022/10/25 02:30:52;;;;;;;1.23;0.53;;;13.00;99.90;;;;;;5089054;28;20035;-75
2022/10/25 02:33:18;;;;;;;2.70;0.63;;;13.00;99.90;;;;;;5086108;28;20036;-76
2022/10/25 02:36:06;;;;;;;2.97;0.75;;;13.10;99.90;;;;;;5075558;28;20045;-76
2022/10/25 02:38:32;;;;;;;1.38;0.55;;;13.10;99.90;;;;;;5083730;28;20107;-76
2022/10/25 02:41:01;;;;;;;1.13;0.47;;;13.20;99.90;;;;;;5074037;28;20542;-79
2022/10/25 02:43:27;;;;;;;3.35;0.80;;;13.20;99.90;;;;;;5073889;28;20559;-76
2022/10/25 02:45:52;;;;;;;3.30;0.63;;;13.20;99.90;;;;;;5074998;28;20124;-76
2022/10/25 02:48:18;;;;;;;4.70;0.65;;;13.30;99.90;;;;;;5073756;28;20116;-76
2022/10/25 02:50:44;;;;;;;2.33;0.55;;;13.20;99.90;;;;;;5089017;28;20114;-76
2022/10/25 02:53:09;;;;;;;1.75;0.80;;;13.20;99.90;;;;;;5093796;28;20537;-78
2022/10/25 02:55:35;;;;;;;2.53;0.68;;;13.20;99.90;;;;;;5094051;28;20054;-77
2022/10/25 02:58:01;;;;;;;1.75;0.70;;;13.20;99.90;;;;;;5076418;28;20522;-76
2022/10/25 03:00:28;;;;;;;6.35;0.57;;;13.20;99.90;;;;;;5090094;28;20036;-77
2022/10/25 03:02:54;;;;;;;3.15;0.85;;;13.10;99.90;;;;;;5076228;28;20041;-76
2022/10/25 03:05:19;;;;;;;4.40;1.00;;;13.00;99.90;;;;;;5093826;28;20065;-76
2022/10/25 03:07:45;;;;;;;1.20;0.60;;;12.90;99.90;;;;;;5078333;28;20127;-76
2022/10/25 03:10:11;;;;;;;1.98;0.57;;;12.90;99.90;;;;;;5073698;28;20121;-78
2022/10/25 03:12:37;;;;;;;1.77;0.60;;;12.90;99.90;;;;;;5073602;28;20036;-76
2022/10/25 03:15:03;;;;;;;4.50;0.70;;;12.90;99.90;;;;;;5073233;28;20742;-76
2022/10/25 03:17:29;;;;;;;1.00;0.43;;;12.90;99.90;;;;;;5073082;28;20045;-79
2022/10/25 03:19:54;;;;;;;3.55;1.15;;;12.80;99.90;;;;;;5080502;28;20586;-75
2022/10/25 03:22:20;;;;;;;3.47;0.45;;;12.80;99.90;;;;;;5081247;28;20047;-76
2022/10/25 03:24:46;;;;;;;1.73;0.70;;;12.90;99.90;;;;;;5073678;28;20123;-76
2022/10/25 03:27:11;;;;;;;2.35;0.65;;;12.90;99.90;;;;;;5071999;28;20032;-75
2022/10/25 03:29:37;;;;;;;3.47;0.73;;;12.80;99.90;;;;;;5073305;28;20028;-75
2022/10/25 03:32:04;;;;;;;2.22;0.65;;;12.80;99.90;;;;;;5074355;28;20182;-76
2022/10/25 03:34:30;;;;;;;1.38;0.50;;;12.70;99.90;;;;;;5091611;28;20040;-76
2022/10/25 03:36:57;;;;;;;4.18;0.82;;;12.70;99.90;;;;;;5092957;28;20052;-77
2022/10/25 03:39:23;;;;;;;3.33;1.05;;;12.60;99.90;;;;;;5086357;28;20039;-76
2022/10/25 03:41:49;;;;;;;3.38;0.82;;;12.70;99.90;;;;;;5073342;28;20130;-79
2022/10/25 03:44:15;;;;;;;0.73;0.40;;;12.80;99.90;;;;;;5077384;28;20033;-77
2022/10/25 03:46:41;;;;;;;4.18;0.70;;;12.80;99.90;;;;;;5086202;28;20100;-76
2022/10/25 03:49:07;;;;;;;2.03;0.70;;;12.90;99.90;;;;;;5095532;28;20036;-78
2022/10/25 03:51:33;;;;;;;4.60;0.93;;;13.10;99.90;;;;;;5097089;28;20040;-76
2022/10/25 03:53:59;;;;;;;1.95;0.85;;;13.30;99.90;;;;;;5081371;28;20373;-77
2022/10/25 03:56:24;;;;;;;4.60;0.98;;;13.40;99.90;;;;;;5076917;28;20091;-76
2022/10/25 03:58:52;;;;;;;2.65;0.73;;;13.30;99.90;;;;;;5095776;28;20032;-78
2022/10/25 04:01:17;;;;;;;1.05;0.60;;;13.20;99.90;;;;;;5090306;28;20444;-75
2022/10/25 04:03:44;;;;;;;0.75;0.50;;;12.90;99.90;;;;;;5083013;28;20121;-75
2022/10/25 04:06:10;;;;;;;1.48;0.65;;;12.80;99.90;;;;;;5087044;28;20109;-76
2022/10/25 04:08:37;;;;;;;2.65;0.75;;;12.70;99.90;;;;;;5075519;28;20074;-77
2022/10/25 04:11:03;;;;;;;2.20;0.60;;;12.60;99.90;;;;;;5076730;28;20089;-75
2022/10/25 04:13:29;;;;;;;2.20;0.80;;;12.60;99.90;;;;;;5076764;28;20119;-75
2022/10/25 04:15:54;;;;;;;1.45;0.77;;;12.60;99.90;;;;;;5077514;28;20122;-75
2022/10/25 04:18:20;;;;;;;0.88;0.60;;;12.60;99.90;;;;;;5076641;28;20151;-75
2022/10/25 04:20:46;;;;;;;1.67;0.95;;;12.70;99.90;;;;;;5076517;28;20047;-77
2022/10/25 04:23:12;;;;;;;2.03;0.50;;;12.80;99.90;;;;;;5089938;28;20044;-79
2022/10/25 04:25:38;;;;;;;1.67;0.70;;;12.80;99.90;;;;;;5078755;28;20516;-76
2022/10/25 04:28:04;;;;;;;5.03;0.90;;;12.80;99.90;;;;;;5074994;28;20041;-79
2022/10/25 04:30:30;;;;;;;3.00;0.80;;;12.80;99.90;;;;;;5077226;28;20396;-79
2022/10/25 04:32:58;;;;;;;2.67;0.88;;;12.80;99.90;;;;;;5095130;28;20075;-77
2022/10/25 04:35:24;;;;;;;3.38;0.63;;;12.90;99.90;;;;;;5079683;28;20408;-75
2022/10/25 04:37:50;;;;;;;1.30;0.80;;;12.90;99.90;;;;;;5077052;28;20028;-75
2022/10/25 04:40:17;;;;;;;2.13;0.70;;;12.90;99.90;;;;;;5062443;28;20041;-75
2022/10/25 04:42:42;;;;;;;3.90;1.05;;;12.80;99.90;;;;;;5084451;28;20068;-76
2022/10/25 04:45:09;;;;;;;1.58;0.88;;;12.50;99.90;;;;;;5092739;28;20067;-77
2022/10/25 04:47:35;;;;;;;1.30;0.47;;;11.90;99.90;;;;;;5094659;28;20040;-76
2022/10/25 04:50:01;;;;;;;2.00;0.82;;;12.00;99.90;;;;;;5092641;28;20028;-76
2022/10/25 04:52:29;;;;;;;3.83;1.02;;;12.00;99.90;;;;;;5093871;28;20490;-76
2022/10/25 04:54:55;;;;;;;1.13;0.60;;;12.00;99.90;;;;;;5075904;28;20389;-76
2022/10/25 04:57:21;;;;;;;4.97;0.82;;;12.00;99.90;;;;;;5074406;28;20032;-76
2022/10/25 04:59:47;;;;;;;2.75;0.70;;;12.10;99.90;;;;;;5075669;28;20044;-76
2022/10/25 05:02:13;;;;;;;2.70;0.60;;;12.30;99.90;;;;;;5075865;28;20036;-75
2022/10/25 05:04:39;;;;;;;2.28;0.85;;;12.30;99.90;;;;;;5090982;28;20034;-76
2022/10/25 05:07:05;;;;;;;3.22;1.00;;;12.40;99.90;;;;;;5095904;28;20036;-75
2022/10/25 05:09:30;;;;;;;2.38;0.77;;;12.30;99.90;;;;;;5094376;28;20028;-75
2022/10/25 05:11:56;;;;;;;3.88;0.90;;;12.30;99.90;;;;;;5094178;28;20503;-77
2022/10/25 05:14:22;;;;;;;2.35;0.90;;;12.40;99.90;;;;;;5094447;28;20479;-76
2022/10/25 05:16:47;;;;;;;1.52;0.60;;;12.50;99.90;;;;;;5094581;28;20040;-76
2022/10/25 05:19:13;;;;;;;5.32;1.25;;;12.50;99.90;;;;;;5095853;28;20079;-76
2022/10/25 05:21:39;;;;;;;3.60;0.90;;;12.50;99.90;;;;;;5081600;28;20052;-76
2022/10/25 05:24:05;;;;;;;4.50;0.75;;;12.20;99.90;;;;;;5075342;28;20128;-75
2022/10/25 05:26:31;;;;;;;1.67;0.70;;;12.20;99.90;;;;;;5075457;28;20068;-79
2022/10/25 05:28:57;;;;;;;3.38;1.15;;;12.10;99.90;;;;;;5075235;28;20500;-79
2022/10/25 05:31:25;;;;;;;1.92;0.50;;;12.10;99.90;;;;;;5073766;28;20033;-75
2022/10/25 05:33:53;;;;;;;3.97;0.90;;;12.20;99.90;;;;;;5074317;28;20055;-75
2022/10/25 05:36:20;;;;;;;2.13;1.25;;;12.20;99.90;;;;;;5073111;28;20052;-76
2022/10/25 05:38:46;;;;;;;3.88;0.82;;;12.20;99.90;;;;;;5072931;28;20037;-75
2022/10/25 05:41:13;;;;;;;2.22;0.60;;;12.30;99.90;;;;;;5074178;28;20121;-74
2022/10/25 05:43:40;;;;;;;3.55;0.65;;;12.30;99.90;;;;;;5074991;28;20412;-75
2022/10/25 05:46:15;;;;;;;0.70;0.40;;;12.40;99.90;;;;;;5073735;28;20060;-77
2022/10/25 05:48:41;;;;;;;4.70;0.90;;;12.40;99.90;;;;;;5075264;28;20048;-79
2022/10/25 05:51:21;;;;;;;5.32;0.60;;;12.20;99.90;;;;;;5074943;28;20028;-74
2022/10/25 05:53:52;;;;;;;5.50;1.00;;;12.20;99.90;;;;;;5074808;28;20048;-74
2022/10/25 05:56:19;;;;;;;1.77;0.90;;;12.20;99.90;;;;;;5074821;28;20618;-74
2022/10/25 05:58:45;;;;;;;1.20;0.65;;;12.20;99.90;;;;;;5073888;28;20047;-74
2022/10/25 06:01:13;;;;;;;3.05;0.80;;;12.30;99.90;;;;;;5073427;28;20039;-75
2022/10/25 06:03:39;;;;;;;1.27;0.80;;;12.50;99.90;;;;;;5074447;28;20510;-74
2022/10/25 06:06:07;;;;;;;2.45;0.73;;;12.70;99.90;;;;;;5074542;28;20032;-74
2022/10/25 06:08:34;;;;;;;1.05;0.40;;;12.90;99.90;;;;;;5074565;28;20565;-79
2022/10/25 06:11:05;;;;;;;4.40;0.65;;;12.50;99.90;;;;;;5073262;28;20040;-74
2022/10/25 06:13:31;;;;;;;5.50;0.70;;;12.50;99.90;;;;;;5073536;28;20036;-74
2022/10/25 06:15:58;;;;;;;1.02;0.77;;;12.50;99.90;;;;;;5073063;28;20059;-74
2022/10/25 06:18:23;;;;;;;1.38;0.73;;;12.50;99.90;;;;;;5073566;28;20059;-79
2022/10/25 06:20:49;;;;;;;1.25;0.52;;;12.60;99.90;;;;;;5074299;28;20492;-74
2022/10/25 06:23:15;;;;;;;1.67;0.82;;;12.60;99.90;;;;;;5074122;28;20495;-75
2022/10/25 06:25:41;;;;;;;3.13;0.70;;;12.70;99.90;;;;;;5073237;28;20419;-78
2022/10/25 06:28:08;;;;;;;3.05;0.85;;;12.70;99.90;;;;;;5074183;28;20032;-74
2022/10/25 06:30:34;;;;;;;2.97;0.73;;;12.80;99.90;;;;;;5074311;28;20055;-74
2022/10/25 06:33:00;;;;;;;3.50;0.70;;;12.80;99.90;;;;;;5074297;28;20031;-74
2022/10/25 06:35:27;;;;;;;0.73;0.45;;;12.70;99.90;;;;;;5072797;28;20044;-74
2022/10/25 06:37:53;;;;;;;7.18;1.02;;;12.60;99.90;;;;;;5072917;28;20380;-76
2022/10/25 06:40:19;;;;;;;6.65;1.00;;;12.50;99.90;;;;;;5073108;28;20082;-74
2022/10/25 06:42:44;;;;;;;2.15;0.65;;;12.60;99.90;;;;;;5072769;28;20511;-79
2022/10/25 06:45:10;;;;;;;1.38;0.68;;;12.60;99.90;;;;;;5074092;28;20044;-73
2022/10/25 06:47:36;;;;;;;4.50;0.93;;;13.00;99.90;;;;;;5072993;28;20158;-74
2022/10/25 06:50:01;;;;;;;2.58;0.60;;;13.20;99.90;;;;;;5073971;28;20094;-74
2022/10/25 06:52:28;;;;;;;1.80;0.70;;;13.30;99.90;;;;;;5072469;28;20051;-74
2022/10/25 06:54:54;;;;;;;2.15;0.45;;;13.60;99.90;;;;;;5073999;28;20040;-77
2022/10/25 06:57:19;;;;;;;1.65;0.60;;;13.80;99.90;;;;;;5072743;28;20036;-74
2022/10/25 06:59:45;;;;;;;3.25;0.77;;;14.00;99.90;;;;;;5073887;28;20377;-74
2022/10/25 07:02:11;;;;;;;2.92;0.60;;;14.30;99.90;;;;;;5073937;28;20036;-76
2022/10/25 07:04:36;;;;;;;2.78;0.80;;;14.50;99.90;;;;;;5072595;28;20048;-74
2022/10/25 07:07:02;;;;;;;1.60;0.70;;;14.60;99.90;;;;;;5072598;28;20504;-74
2022/10/25 07:09:28;;;;;;;2.80;0.77;;;14.80;99.90;;;;;;5073885;28;20037;-74
2022/10/25 07:11:54;;;;;;;3.78;0.75;;;15.00;99.90;;;;;;5073823;28;20044;-76
2022/10/25 07:14:20;;;;;;;2.88;0.57;;;15.00;99.90;;;;;;5072371;28;20037;-75
2022/10/25 07:16:45;;;;;;;1.98;0.82;;;15.30;99.90;;;;;;5072878;28;20090;-76
2022/10/25 07:19:11;;;;;;;2.60;0.77;;;15.30;99.90;;;;;;5077747;28;20036;-76
2022/10/25 07:21:37;;;;;;;1.02;0.50;;;15.40;99.90;;;;;;5077860;28;20522;-75
2022/10/25 07:24:03;;;;;;;2.17;0.60;;;15.60;99.90;;;;;;5077644;28;20040;-75
2022/10/25 07:26:33;;;;;;;1.17;0.70;;;15.60;99.90;;;;;;5077722;28;20048;-75
2022/10/25 07:29:01;;;;;;;3.20;0.90;;;15.40;99.90;;;;;;5076335;28;20154;-75
2022/10/25 07:31:30;;;;;;;1.02;0.60;;;15.20;99.90;;;;;;5077919;28;20487;-75
2022/10/25 07:33:58;;;;;;;2.42;0.80;;;15.60;99.90;;;;;;5076143;28;20041;-75
2022/10/25 07:36:24;;;;;;;2.10;0.75;;;15.90;99.90;;;;;;5076076;28;20557;-77
2022/10/25 07:38:49;;;;;;;1.08;0.70;;;16.10;99.90;;;;;;5075993;28;20028;-75
2022/10/25 07:41:15;;;;;;;1.63;0.55;;;16.20;99.90;;;;;;5076312;28;20044;-76
2022/10/25 07:43:41;;;;;;;1.63;0.60;;;16.10;99.90;;;;;;5077350;28;20135;-77
2022/10/25 07:46:08;;;;;;;1.60;0.68;;;15.70;99.90;;;;;;5077330;28;20068;-76
2022/10/25 07:48:34;;;;;;;2.90;0.50;;;15.70;99.90;;;;;;5077139;28;20560;-76
2022/10/25 07:51:09;;;;;;;1.63;0.65;;;16.30;99.90;;;;;;5075901;28;20032;-75
2022/10/25 07:53:35;;;;;;;1.95;0.40;;;16.70;99.90;;;;;;5077156;28;20048;-76
2022/10/25 07:56:01;;;;;;;3.42;0.90;;;17.20;99.90;;;;;;5075699;28;20040;-78
2022/10/25 07:58:27;;;;;;;1.50;0.60;;;17.40;99.90;;;;;;5075707;28;20036;-75
2022/10/25 08:01:01;;;;;;;1.80;0.50;;;17.20;99.90;;;;;;5075527;28;20119;-78
2022/10/25 08:03:27;;;;;;;3.15;0.50;;;17.50;99.90;;;;;;5076957;28;20040;-76
2022/10/25 08:05:53;;;;;;;2.67;0.80;;;17.40;99.90;;;;;;5076890;28;20085;-78
2022/10/25 08:08:22;;;;;;;1.50;0.80;;;17.60;99.90;;;;;;5069124;28;20044;-75
2022/10/25 08:10:48;;;;;;;1.85;0.68;;;17.40;99.90;;;;;;5054806;28;20055;-75
2022/10/25 08:13:14;;;;;;;1.10;0.60;;;16.70;99.90;;;;;;5053185;28;20492;-75
2022/10/25 08:15:40;;;;;;;2.30;0.65;;;16.90;99.90;;;;;;5053383;28;20048;-75
2022/10/25 08:18:08;;;;;;;1.55;0.68;;;17.00;99.90;;;;;;5056685;28;20107;-75
2022/10/25 08:20:34;;;;;;;5.25;1.13;;;17.10;99.90;;;;;;5054424;28;20033;-75
2022/10/25 08:23:00;;;;;;;6.90;1.50;;;17.20;99.90;;;;;;5054114;28;20036;-75
2022/10/25 08:25:28;;;;;;;2.15;0.73;;;17.40;99.90;;;;;;5054964;28;20033;-75
2022/10/25 08:27:54;;;;;;;1.63;0.68;;;17.40;99.90;;;;;;5054077;28;20063;-75
2022/10/25 08:30:22;;;;;;;1.40;0.70;;;17.30;99.90;;;;;;5053148;28;20036;-75
2022/10/25 08:32:49;;;;;;;3.97;0.45;;;17.40;99.90;;;;;;5052801;28;20083;-75
2022/10/25 08:35:15;;;;;;;8.52;1.05;;;17.60;99.90;;;;;;5053186;28;20279;-75
2022/10/25 08:37:42;;;;;;;3.38;0.98;;;17.90;99.90;;;;;;5052978;28;20056;-75
2022/10/25 08:40:24;;;;;;;1.27;0.80;;;18.10;99.90;;;;;;5071637;28;20028;-75
2022/10/25 08:42:57;;;;;;;1.95;0.95;;;18.40;99.90;;;;;;5072889;28;20037;-75
2022/10/25 08:46:00;;;;;;;4.72;1.20;;;18.60;99.90;;;;;;5073442;28;20069;-75
2022/10/25 08:48:31;;;;;;;2.30;1.00;;;18.40;99.90;;;;;;5070278;28;20071;-75
2022/10/25 08:51:06;;;;;;;3.30;0.60;;;18.20;99.90;;;;;;5074558;28;20060;-76
2022/10/25 08:53:41;;;;;;;1.80;0.60;;;18.00;99.90;;;;;;5072987;28;20321;-75
2022/10/25 08:56:12;;;;;;;2.10;1.13;;;18.10;99.90;;;;;;5074034;28;20048;-75
2022/10/25 08:58:47;;;;;;;2.88;1.02;;;18.00;99.90;;;;;;5073891;28;20040;-75
2022/10/25 09:01:22;;;;;;;3.15;0.90;;;17.70;99.90;;;;;;5075783;28;20040;-75
2022/10/25 09:03:49;;;;;;;3.60;0.70;;;17.80;99.90;;;;;;5073814;28;20037;-75
2022/10/25 09:06:34;;;;;;;3.30;1.02;;;18.10;99.90;;;;;;5074649;28;20029;-75
2022/10/25 09:09:04;;;;;;;3.70;0.90;;;18.10;99.90;;;;;;5074463;28;20097;-75
2022/10/25 09:11:52;;;;;;;1.40;0.90;;;18.20;99.90;;;;;;5074860;28;20037;-75
2022/10/25 09:14:52;;;;;;;3.28;0.85;;;18.40;99.90;;;;;;5073955;28;20055;-75
2022/10/25 09:17:20;;;;;;;3.05;0.80;;;18.70;99.90;;;;;;5073038;28;20089;-75
2022/10/25 09:20:02;;;;;;;1.92;0.80;;;18.90;99.90;;;;;;5073922;28;20089;-74
2022/10/25 09:22:45;;;;;;;2.05;0.95;;;18.90;99.90;;;;;;5073974;28;20045;-75
2022/10/25 09:25:21;;;;;;;3.22;0.70;;;18.80;99.90;;;;;;5074549;28;20123;-75
2022/10/25 09:28:20;;;;;;;3.40;1.40;;;18.30;99.90;;;;;;5073245;28;20040;-75
2022/10/25 09:30:47;;;;;;;3.88;1.63;;;18.40;99.90;;;;;;5073046;28;20557;-75
2022/10/25 09:33:18;;;;;;;8.35;2.78;;;18.50;99.90;;;;;;5055364;28;20041;-75
2022/10/25 09:35:55;;;;;;;1.92;1.25;;;18.80;99.90;;;;;;5073195;28;20450;-75
2022/10/25 09:38:42;;;;;;;3.97;1.60;;;18.90;99.90;;;;;;5073449;28;20048;-75
2022/10/25 09:41:39;;;;;;;2.17;1.30;;;18.80;99.90;;;;;;5070806;28;20047;-75
2022/10/25 09:44:35;;;;;;;4.75;1.67;;;18.90;99.90;;;;;;5073954;28;20044;-75
2022/10/25 09:47:11;;;;;;;6.43;1.20;;;18.60;99.90;;;;;;5073754;28;20059;-75
2022/10/25 09:49:43;;;;;;;5.38;1.73;;;18.50;99.90;;;;;;5071437;28;20127;-76
2022/10/25 09:52:17;;;;;;;2.50;1.20;;;18.80;99.90;;;;;;5071533;28;20484;-75
2022/10/25 09:54:58;;;;;;;3.72;0.90;;;18.80;99.90;;;;;;5072880;28;20051;-75
2022/10/25 09:57:25;;;;;;;6.13;1.00;;;19.10;99.90;;;;;;5071591;28;20102;-75
2022/10/25 09:59:52;;;;;;;6.72;1.40;;;18.90;99.90;;;;;;5072633;28;20046;-76
2022/10/25 10:02:25;;;;;;;2.40;1.17;;;19.30;99.90;;;;;;5072856;28;20047;-75
2022/10/25 10:04:52;;;;;;;1.63;0.93;;;19.50;99.90;;;;;;5070647;28;20051;-75
2022/10/25 10:07:27;;;;;;;3.08;1.08;;;19.20;99.90;;;;;;5071438;28;20496;-76
2022/10/25 10:10:00;;;;;;;4.07;1.20;;;19.20;99.90;;;;;;5072789;28;20036;-76
2022/10/25 10:12:30;;;;;;;2.58;1.13;;;19.30;99.90;;;;;;5072744;28;20060;-76
2022/10/25 10:15:07;;;;;;;3.17;1.10;;;19.10;99.90;;;;;;5072072;28;20554;-75
2022/10/25 10:17:34;;;;;;;2.72;1.00;;;18.70;99.90;;;;;;5072270;28;20484;-75
2022/10/25 10:20:13;;;;;;;2.17;0.88;;;18.90;99.90;;;;;;5070890;28;20043;-75
2022/10/25 10:22:59;;;;;;;4.97;1.42;;;19.10;99.90;;;;;;5072431;28;20123;-76
2022/10/25 10:25:27;;;;;;;2.53;1.45;;;19.40;99.90;;;;;;5070870;28;20044;-75
2022/10/25 10:27:56;;;;;;;2.20;1.10;;;19.30;99.90;;;;;;5072114;28;20478;-76
2022/10/25 10:30:29;;;;;;;2.92;1.08;;;19.20;99.90;;;;;;5070604;28;20039;-75
2022/10/25 10:33:01;;;;;;;5.88;1.45;;;19.10;99.90;;;;;;5070098;28;20052;-75
2022/10/25 10:35:36;;;;;;;4.50;1.58;;;19.20;99.90;;;;;;5070901;28;20079;-76
2022/10/25 10:38:21;;;;;;;5.97;1.30;;;19.40;99.90;;;;;;5072662;28;20051;-75
2022/10/25 10:40:51;;;;;;;2.15;1.10;;;19.60;99.90;;;;;;5074013;28;20439;-76
2022/10/25 10:43:30;;;;;;;7.38;1.52;;;19.50;99.90;;;;;;5074202;28;20062;-76
2022/10/25 10:46:07;;;;;;;2.13;1.20;;;19.70;99.90;;;;;;5071810;28;20127;-76
2022/10/25 10:48:38;;;;;;;6.03;1.50;;;19.50;99.90;;;;;;5072261;28;20436;-76
2022/10/25 10:51:04;;;;;;;3.22;1.08;;;19.50;99.90;;;;;;5072041;28;20036;-77
2022/10/25 10:53:33;;;;;;;2.55;1.13;;;19.30;99.90;;;;;;5071661;28;20036;-76
2022/10/25 10:56:05;;;;;;;4.57;1.15;;;19.40;99.90;;;;;;5071969;28;20048;-76
2022/10/25 10:58:34;;;;;;;1.83;0.90;;;19.30;99.90;;;;;;5073899;28;20071;-76
2022/10/25 11:01:03;;;;;;;4.47;1.58;;;19.50;99.90;;;;;;5072742;28;20045;-76
2022/10/25 11:03:38;;;;;;;3.72;1.25;;;19.70;99.90;;;;;;5073901;28;20524;-76
2022/10/25 11:06:16;;;;;;;3.92;1.38;;;19.70;99.90;;;;;;5073931;28;20124;-77
2022/10/25 11:08:44;;;;;;;5.05;1.38;;;;;;;;;;5073277;28;20049;-76
2022/10/25 11:11:14;;;;;;;5.53;1.23;;;20.00;99.90;;;;;;5073857;28;20041;-76
2022/10/25 11:13:45;;;;;;;;;;;19.90;99.90;;;;;;5074056;28;20128;-76
2022/10/25 11:16:45;;;;;;;3.13;1.10;;;19.70;99.90;;;;;;5072207;28;19923;-76
2022/10/25 11:19:51;;;;;;;1.83;1.13;;;19.70;99.90;;;;;;5072238;28;20085;-77
2022/10/25 11:22:32;;;;;;;6.03;1.52;;;19.30;99.90;;;;;;5073691;28;20044;-76
2022/10/25 11:25:11;;;;;;;4.70;0.98;;;19.40;99.90;;;;;;5073764;28;20431;-76
2022/10/25 11:28:04;;;;;;;4.20;1.08;;;19.60;99.90;;;;;;5073653;28;20033;-76
2022/10/25 11:30:39;;;;;;;2.55;1.25;;;19.70;99.90;;;;;;5073675;28;20098;-76
2022/10/25 11:33:28;;;;;;;6.55;1.20;;;19.40;99.90;;;;;;5073718;28;20043;-76
2022/10/25 11:36:04;;;;;;;4.50;1.40;;;19.50;99.90;;;;;;5053948;28;20094;-78
2022/10/25 11:38:46;;;;;;;4.03;1.48;;;19.30;99.90;;;;;;5073540;28;20044;-76
2022/10/25 11:41:27;;;;;;;2.92;1.40;;;19.40;99.90;;;;;;5072258;28;20131;-77
2022/10/25 11:44:01;;;;;;;3.03;1.38;;;19.40;99.90;;;;;;5073421;28;20151;-77
2022/10/25 11:46:34;;;;;;;3.28;1.35;;;19.50;99.90;;;;;;5072112;28;20044;-76
2022/10/25 11:49:03;;;;;;;4.75;1.30;;;19.30;99.90;;;;;;5073572;28;20132;-76
2022/10/25 11:52:00;;;;;;;5.10;2.25;;;19.30;99.90;;;;;;5073918;28;20111;-76
2022/10/25 11:54:54;;;;;;;7.72;1.92;;;19.20;99.90;;;;;;5073299;28;20044;-77
2022/10/25 11:58:00;;;;;;;4.65;1.40;;;19.20;99.90;;;;;;5073422;28;20110;-76
2022/10/25 12:00:37;;;;;;;3.08;1.40;;;19.10;99.90;;;;;;5053487;28;20131;-78
2022/10/25 12:03:18;;;;;;;3.70;1.33;;;19.10;99.90;;;;;;5072596;28;20119;-77
2022/10/25 12:05:52;;;;;;;;;;;19.20;99.90;;;;;;5076117;28;20127;-76
2022/10/25 12:08:29;;;;;;;2.53;1.45;;;19.20;99.90;;;;;;5075542;28;19958;-76
2022/10/25 12:11:12;;;;;;;3.20;1.38;;;19.00;99.90;;;;;;5076596;28;20043;-76
2022/10/25 12:13:42;;;;;;;6.25;1.38;;;19.10;99.90;;;;;;5076482;28;20122;-76
2022/10/25 12:16:15;;;;;;;2.50;1.60;;;19.30;99.90;;;;;;5076720;28;20496;-76
2022/10/25 12:18:45;;;;;;;7.25;1.70;;;19.30;99.90;;;;;;5076845;28;20632;-76
2022/10/25 12:21:19;;;;;;;3.80;1.42;;;19.10;99.90;;;;;;5076878;28;20040;-76
2022/10/25 12:23:51;;;;;;;1.83;1.30;;;18.90;99.90;;;;;;5075380;28;20033;-76
2022/10/25 12:26:26;;;;;;;8.45;1.63;;;18.90;99.90;;;;;;5076724;28;20056;-76
2022/10/25 12:28:52;;;;;;;3.42;1.63;;;18.90;99.90;;;;;;5076695;28;20062;-76
2022/10/25 12:31:24;;;;;;;5.30;1.48;;;18.80;99.90;;;;;;5075266;28;20036;-79
2022/10/25 12:34:06;;;;;;;4.70;1.45;;;18.70;99.90;;;;;;5076580;28;20111;-75
2022/10/25 12:36:46;;;;;;;8.00;2.20;;;18.80;99.90;;;;;;5076499;28;20052;-76
2022/10/25 12:39:40;;;;;;;3.42;1.92;;;18.90;99.90;;;;;;5074899;28;20117;-77
2022/10/25 12:42:27;;;;;;;5.57;1.65;;;19.00;99.90;;;;;;5076248;28;20044;-76
2022/10/25 12:45:17;;;;;;;5.20;1.55;;;18.90;99.90;;;;;;5075888;28;20079;-76
2022/10/25 12:48:16;;;;;;;6.88;1.90;;;18.80;99.90;;;;;;5076247;28;20067;-76
2022/10/25 12:51:00;;;;;;;4.78;1.90;;;18.80;99.90;;;;;;5076440;28;20044;-76
2022/10/25 12:53:54;;;;;;;3.80;1.67;;;18.70;99.90;;;;;;5074771;28;20043;-76
2022/10/25 12:56:53;;;;;;;5.28;1.95;;;18.80;99.90;;;;;;5075954;28;20088;-75
2022/10/25 12:59:33;;;;;;;8.52;2.15;;;18.70;99.90;;;;;;5076117;28;20040;-79
2022/10/25 13:02:17;;;;;;;4.50;2.22;;;18.70;99.90;;;;;;5074820;28;20037;-75
2022/10/25 13:05:12;;;;;;;4.63;1.83;;;18.70;99.90;;;;;;5076024;28;20044;-75
2022/10/25 13:07:38;;;;;;;7.70;2.60;;;18.70;99.90;;;;;;5046178;28;20032;-76
2022/10/25 13:10:17;;;;;;;4.90;2.17;;;18.50;99.90;;;;;;5075941;28;20036;-78